sensor_id;sensor_type;location;lat;lon;timestamp;P1;durP1;ratioP1;P2;durP2;ratioP2
49998;SDS011;68071;45.062;7.356;2023-04-06T00:00:10;15.45;;;12.68;;
49998;SDS011;68071;45.062;7.356;2023-04-06T00:03:15;14.00;;;12.60;;
49998;SDS011;68071;45.062;7.356;2023-04-06T00:06:20;16.00;;;13.43;;
49998;SDS011;68071;45.062;7.356;2023-04-06T00:09:24;13.60;;;12.18;;
49998;SDS011;68071;45.062;7.356;2023-04-06T00:12:28;13.25;;;11.93;;
49998;SDS011;68071;45.062;7.356;2023-04-06T00:15:32;12.02;;;10.82;;
49998;SDS011;68071;45.062;7.356;2023-04-06T00:18:36;12.95;;;11.65;;
49998;SDS011;68071;45.062;7.356;2023-04-06T00:21:40;13.63;;;11.60;;
49998;SDS011;68071;45.062;7.356;2023-04-06T00:24:45;13.70;;;11.35;;
49998;SDS011;68071;45.062;7.356;2023-04-06T00:27:49;13.65;;;11.25;;
49998;SDS011;68071;45.062;7.356;2023-04-06T00:30:54;12.65;;;11.35;;
49998;SDS011;68071;45.062;7.356;2023-04-06T00:33:58;12.75;;;11.40;;
49998;SDS011;68071;45.062;7.356;2023-04-06T00:37:02;14.75;;;11.73;;
49998;SDS011;68071;45.062;7.356;2023-04-06T00:40:07;13.43;;;12.15;;
49998;SDS011;68071;45.062;7.356;2023-04-06T00:43:12;15.23;;;13.35;;
49998;SDS011;68071;45.062;7.356;2023-04-06T00:46:16;12.77;;;11.48;;
49998;SDS011;68071;45.062;7.356;2023-04-06T00:49:20;14.88;;;11.60;;
49998;SDS011;68071;45.062;7.356;2023-04-06T00:52:24;13.85;;;12.15;;
49998;SDS011;68071;45.062;7.356;2023-04-06T00:55:30;13.30;;;11.82;;
49998;SDS011;68071;45.062;7.356;2023-04-06T00:58:35;14.83;;;11.63;;
49998;SDS011;68071;45.062;7.356;2023-04-06T01:01:44;12.93;;;11.70;;
49998;SDS011;68071;45.062;7.356;2023-04-06T01:05:04;12.93;;;11.63;;
49998;SDS011;68071;45.062;7.356;2023-04-06T01:08:18;15.35;;;12.90;;
49998;SDS011;68071;45.062;7.356;2023-04-06T01:11:23;14.73;;;12.98;;
49998;SDS011;68071;45.062;7.356;2023-04-06T01:14:29;13.98;;;12.48;;
49998;SDS011;68071;45.062;7.356;2023-04-06T01:17:37;13.00;;;11.70;;
49998;SDS011;68071;45.062;7.356;2023-04-06T01:20:48;14.18;;;12.68;;
49998;SDS011;68071;45.062;7.356;2023-04-06T01:23:54;12.73;;;11.43;;
49998;SDS011;68071;45.062;7.356;2023-04-06T01:27:05;14.80;;;13.32;;
49998;SDS011;68071;45.062;7.356;2023-04-06T01:30:18;14.40;;;13.00;;
49998;SDS011;68071;45.062;7.356;2023-04-06T01:33:27;14.23;;;12.73;;
49998;SDS011;68071;45.062;7.356;2023-04-06T01:36:40;14.25;;;12.13;;
49998;SDS011;68071;45.062;7.356;2023-04-06T01:39:58;13.70;;;12.18;;
49998;SDS011;68071;45.062;7.356;2023-04-06T01:43:16;14.48;;;13.05;;
49998;SDS011;68071;45.062;7.356;2023-04-06T01:46:42;13.52;;;12.07;;
49998;SDS011;68071;45.062;7.356;2023-04-06T01:49:48;15.50;;;13.90;;
49998;SDS011;68071;45.062;7.356;2023-04-06T01:52:53;14.55;;;12.95;;
49998;SDS011;68071;45.062;7.356;2023-04-06T01:56:00;13.88;;;12.50;;
49998;SDS011;68071;45.062;7.356;2023-04-06T01:59:09;14.15;;;12.73;;
49998;SDS011;68071;45.062;7.356;2023-04-06T02:02:17;14.57;;;13.07;;
49998;SDS011;68071;45.062;7.356;2023-04-06T02:05:31;16.83;;;15.00;;
49998;SDS011;68071;45.062;7.356;2023-04-06T02:08:47;14.77;;;13.27;;
49998;SDS011;68071;45.062;7.356;2023-04-06T02:11:51;14.68;;;13.27;;
49998;SDS011;68071;45.062;7.356;2023-04-06T02:14:55;15.18;;;13.57;;
49998;SDS011;68071;45.062;7.356;2023-04-06T02:17:59;15.43;;;13.55;;
49998;SDS011;68071;45.062;7.356;2023-04-06T02:21:04;14.38;;;12.88;;
49998;SDS011;68071;45.062;7.356;2023-04-06T02:24:08;14.65;;;12.93;;
49998;SDS011;68071;45.062;7.356;2023-04-06T02:27:13;16.77;;;13.07;;
49998;SDS011;68071;45.062;7.356;2023-04-06T02:30:18;15.27;;;13.18;;
49998;SDS011;68071;45.062;7.356;2023-04-06T02:33:23;14.20;;;12.77;;
49998;SDS011;68071;45.062;7.356;2023-04-06T02:36:27;13.75;;;12.32;;
49998;SDS011;68071;45.062;7.356;2023-04-06T02:39:31;15.60;;;13.50;;
49998;SDS011;68071;45.062;7.356;2023-04-06T02:42:35;15.65;;;12.35;;
49998;SDS011;68071;45.062;7.356;2023-04-06T02:45:40;11.30;;;7.72;;
49998;SDS011;68071;45.062;7.356;2023-04-06T02:48:47;14.85;;;13.23;;
49998;SDS011;68071;45.062;7.356;2023-04-06T02:51:51;16.05;;;13.65;;
49998;SDS011;68071;45.062;7.356;2023-04-06T02:55:00;14.93;;;13.15;;
49998;SDS011;68071;45.062;7.356;2023-04-06T02:58:08;15.32;;;13.82;;
49998;SDS011;68071;45.062;7.356;2023-04-06T03:01:21;12.15;;;9.20;;
49998;SDS011;68071;45.062;7.356;2023-04-06T03:04:31;16.70;;;13.35;;
49998;SDS011;68071;45.062;7.356;2023-04-06T03:07:37;15.75;;;14.15;;
49998;SDS011;68071;45.062;7.356;2023-04-06T03:13:48;14.43;;;12.93;;
49998;SDS011;68071;45.062;7.356;2023-04-06T03:16:52;14.38;;;12.88;;
49998;SDS011;68071;45.062;7.356;2023-04-06T03:20:00;15.05;;;13.13;;
49998;SDS011;68071;45.062;7.356;2023-04-06T03:23:05;13.50;;;12.20;;
49998;SDS011;68071;45.062;7.356;2023-04-06T03:26:13;14.82;;;13.30;;
49998;SDS011;68071;45.062;7.356;2023-04-06T03:29:18;16.38;;;13.98;;
49998;SDS011;68071;45.062;7.356;2023-04-06T03:32:21;16.20;;;14.50;;
49998;SDS011;68071;45.062;7.356;2023-04-06T03:35:25;12.95;;;9.10;;
49998;SDS011;68071;45.062;7.356;2023-04-06T03:38:30;14.75;;;13.25;;
49998;SDS011;68071;45.062;7.356;2023-04-06T03:41:34;15.32;;;13.40;;
49998;SDS011;68071;45.062;7.356;2023-04-06T03:44:49;15.40;;;10.40;;
49998;SDS011;68071;45.062;7.356;2023-04-06T03:47:54;13.10;;;9.93;;
49998;SDS011;68071;45.062;7.356;2023-04-06T03:50:58;15.55;;;10.13;;
49998;SDS011;68071;45.062;7.356;2023-04-06T03:54:03;17.83;;;10.95;;
49998;SDS011;68071;45.062;7.356;2023-04-06T03:57:07;16.98;;;15.20;;
49998;SDS011;68071;45.062;7.356;2023-04-06T04:00:11;21.27;;;16.80;;
49998;SDS011;68071;45.062;7.356;2023-04-06T04:03:16;15.87;;;14.37;;
49998;SDS011;68071;45.062;7.356;2023-04-06T04:06:20;13.85;;;10.40;;
49998;SDS011;68071;45.062;7.356;2023-04-06T04:09:25;15.30;;;13.75;;
49998;SDS011;68071;45.062;7.356;2023-04-06T04:12:29;15.25;;;13.50;;
49998;SDS011;68071;45.062;7.356;2023-04-06T04:15:34;16.17;;;14.63;;
49998;SDS011;68071;45.062;7.356;2023-04-06T04:18:38;15.65;;;13.73;;
49998;SDS011;68071;45.062;7.356;2023-04-06T04:21:44;12.25;;;9.00;;
49998;SDS011;68071;45.062;7.356;2023-04-06T04:24:54;13.05;;;10.52;;
49998;SDS011;68071;45.062;7.356;2023-04-06T04:27:58;16.30;;;14.50;;
49998;SDS011;68071;45.062;7.356;2023-04-06T04:31:02;13.40;;;10.70;;
49998;SDS011;68071;45.062;7.356;2023-04-06T04:34:09;15.13;;;13.52;;
49998;SDS011;68071;45.062;7.356;2023-04-06T04:37:13;15.75;;;13.88;;
49998;SDS011;68071;45.062;7.356;2023-04-06T04:40:26;16.95;;;14.07;;
49998;SDS011;68071;45.062;7.356;2023-04-06T04:43:39;14.77;;;9.73;;
49998;SDS011;68071;45.062;7.356;2023-04-06T04:46:44;18.42;;;10.95;;
49998;SDS011;68071;45.062;7.356;2023-04-06T04:49:50;17.48;;;15.68;;
49998;SDS011;68071;45.062;7.356;2023-04-06T04:52:59;19.70;;;12.73;;
49998;SDS011;68071;45.062;7.356;2023-04-06T04:56:04;16.30;;;10.27;;
49998;SDS011;68071;45.062;7.356;2023-04-06T04:59:09;15.05;;;11.02;;
49998;SDS011;68071;45.062;7.356;2023-04-06T05:02:16;17.00;;;10.93;;
49998;SDS011;68071;45.062;7.356;2023-04-06T05:05:44;14.25;;;10.40;;
49998;SDS011;68071;45.062;7.356;2023-04-06T05:08:49;16.42;;;10.30;;
49998;SDS011;68071;45.062;7.356;2023-04-06T05:11:53;16.80;;;10.00;;
49998;SDS011;68071;45.062;7.356;2023-04-06T05:14:58;13.37;;;9.83;;
49998;SDS011;68071;45.062;7.356;2023-04-06T05:18:04;14.43;;;9.73;;
49998;SDS011;68071;45.062;7.356;2023-04-06T05:21:10;15.77;;;10.25;;
49998;SDS011;68071;45.062;7.356;2023-04-06T05:24:37;17.48;;;15.63;;
49998;SDS011;68071;45.062;7.356;2023-04-06T05:27:44;16.75;;;15.05;;
49998;SDS011;68071;45.062;7.356;2023-04-06T05:31:05;15.85;;;14.25;;
49998;SDS011;68071;45.062;7.356;2023-04-06T05:34:18;15.93;;;10.88;;
49998;SDS011;68071;45.062;7.356;2023-04-06T05:37:24;17.15;;;14.60;;
49998;SDS011;68071;45.062;7.356;2023-04-06T05:40:29;15.90;;;14.27;;
49998;SDS011;68071;45.062;7.356;2023-04-06T05:43:33;14.70;;;10.50;;
49998;SDS011;68071;45.062;7.356;2023-04-06T05:46:39;17.13;;;15.07;;
49998;SDS011;68071;45.062;7.356;2023-04-06T05:49:45;16.05;;;14.43;;
49998;SDS011;68071;45.062;7.356;2023-04-06T05:52:57;17.50;;;14.98;;
49998;SDS011;68071;45.062;7.356;2023-04-06T05:56:07;19.33;;;17.27;;
49998;SDS011;68071;45.062;7.356;2023-04-06T05:59:10;19.25;;;16.27;;
49998;SDS011;68071;45.062;7.356;2023-04-06T06:02:14;16.85;;;15.15;;
49998;SDS011;68071;45.062;7.356;2023-04-06T06:05:23;16.60;;;14.90;;
49998;SDS011;68071;45.062;7.356;2023-04-06T06:08:28;17.55;;;15.82;;
49998;SDS011;68071;45.062;7.356;2023-04-06T06:11:33;16.67;;;14.50;;
49998;SDS011;68071;45.062;7.356;2023-04-06T06:14:39;15.25;;;13.73;;
49998;SDS011;68071;45.062;7.356;2023-04-06T06:17:44;16.20;;;14.27;;
49998;SDS011;68071;45.062;7.356;2023-04-06T06:20:48;16.80;;;15.07;;
49998;SDS011;68071;45.062;7.356;2023-04-06T06:23:53;16.08;;;14.40;;
49998;SDS011;68071;45.062;7.356;2023-04-06T06:26:59;17.88;;;15.65;;
49998;SDS011;68071;45.062;7.356;2023-04-06T06:30:06;15.63;;;14.07;;
49998;SDS011;68071;45.062;7.356;2023-04-06T06:33:13;16.45;;;13.57;;
49998;SDS011;68071;45.062;7.356;2023-04-06T06:36:17;19.13;;;14.18;;
49998;SDS011;68071;45.062;7.356;2023-04-06T06:39:23;18.15;;;15.32;;
49998;SDS011;68071;45.062;7.356;2023-04-06T06:42:28;15.35;;;13.75;;
49998;SDS011;68071;45.062;7.356;2023-04-06T06:45:43;17.73;;;13.93;;
49998;SDS011;68071;45.062;7.356;2023-04-06T06:48:50;16.38;;;13.98;;
49998;SDS011;68071;45.062;7.356;2023-04-06T06:51:54;18.67;;;13.35;;
49998;SDS011;68071;45.062;7.356;2023-04-06T06:54:58;15.73;;;12.25;;
49998;SDS011;68071;45.062;7.356;2023-04-06T06:58:02;17.00;;;13.40;;
49998;SDS011;68071;45.062;7.356;2023-04-06T07:01:06;16.35;;;12.57;;
49998;SDS011;68071;45.062;7.356;2023-04-06T07:04:12;15.23;;;13.27;;
49998;SDS011;68071;45.062;7.356;2023-04-06T07:07:15;15.00;;;13.50;;
49998;SDS011;68071;45.062;7.356;2023-04-06T07:10:20;14.82;;;13.30;;
49998;SDS011;68071;45.062;7.356;2023-04-06T07:13:24;15.38;;;13.30;;
49998;SDS011;68071;45.062;7.356;2023-04-06T07:16:33;14.57;;;12.52;;
49998;SDS011;68071;45.062;7.356;2023-04-06T07:19:37;14.35;;;12.85;;
49998;SDS011;68071;45.062;7.356;2023-04-06T07:22:42;13.38;;;10.93;;
49998;SDS011;68071;45.062;7.356;2023-04-06T07:25:48;13.45;;;11.95;;
49998;SDS011;68071;45.062;7.356;2023-04-06T07:28:54;12.93;;;11.63;;
49998;SDS011;68071;45.062;7.356;2023-04-06T07:32:01;12.50;;;11.18;;
49998;SDS011;68071;45.062;7.356;2023-04-06T07:35:05;13.02;;;10.90;;
49998;SDS011;68071;45.062;7.356;2023-04-06T07:38:09;12.45;;;10.80;;
49998;SDS011;68071;45.062;7.356;2023-04-06T07:41:13;14.85;;;12.15;;
49998;SDS011;68071;45.062;7.356;2023-04-06T07:44:18;14.13;;;11.52;;
49998;SDS011;68071;45.062;7.356;2023-04-06T07:47:23;12.35;;;11.10;;
49998;SDS011;68071;45.062;7.356;2023-04-06T07:50:27;15.18;;;10.82;;
49998;SDS011;68071;45.062;7.356;2023-04-06T07:53:32;11.65;;;10.45;;
49998;SDS011;68071;45.062;7.356;2023-04-06T07:56:36;12.63;;;11.05;;
49998;SDS011;68071;45.062;7.356;2023-04-06T07:59:41;11.18;;;10.07;;
49998;SDS011;68071;45.062;7.356;2023-04-06T08:02:45;11.90;;;10.70;;
49998;SDS011;68071;45.062;7.356;2023-04-06T08:05:50;11.38;;;9.95;;
49998;SDS011;68071;45.062;7.356;2023-04-06T08:08:54;13.10;;;10.20;;
49998;SDS011;68071;45.062;7.356;2023-04-06T08:11:58;12.32;;;9.98;;
49998;SDS011;68071;45.062;7.356;2023-04-06T08:15:02;11.18;;;9.95;;
49998;SDS011;68071;45.062;7.356;2023-04-06T08:18:07;11.45;;;10.07;;
49998;SDS011;68071;45.062;7.356;2023-04-06T08:21:11;12.27;;;9.60;;
49998;SDS011;68071;45.062;7.356;2023-04-06T08:24:15;10.10;;;9.18;;
49998;SDS011;68071;45.062;7.356;2023-04-06T08:27:19;12.20;;;10.18;;
49998;SDS011;68071;45.062;7.356;2023-04-06T08:30:23;11.50;;;8.55;;
49998;SDS011;68071;45.062;7.356;2023-04-06T08:33:27;10.80;;;9.70;;
49998;SDS011;68071;45.062;7.356;2023-04-06T08:36:31;11.45;;;9.70;;
49998;SDS011;68071;45.062;7.356;2023-04-06T08:39:36;13.25;;;9.52;;
49998;SDS011;68071;45.062;7.356;2023-04-06T08:42:40;9.48;;;8.38;;
49998;SDS011;68071;45.062;7.356;2023-04-06T08:45:53;10.30;;;8.90;;
49998;SDS011;68071;45.062;7.356;2023-04-06T08:48:57;11.00;;;8.85;;
49998;SDS011;68071;45.062;7.356;2023-04-06T08:52:04;11.35;;;10.13;;
49998;SDS011;68071;45.062;7.356;2023-04-06T08:55:11;10.93;;;9.50;;
49998;SDS011;68071;45.062;7.356;2023-04-06T08:58:15;11.07;;;9.60;;
49998;SDS011;68071;45.062;7.356;2023-04-06T09:01:28;10.32;;;9.25;;
49998;SDS011;68071;45.062;7.356;2023-04-06T09:04:34;11.05;;;9.35;;
49998;SDS011;68071;45.062;7.356;2023-04-06T09:07:40;10.45;;;8.98;;
49998;SDS011;68071;45.062;7.356;2023-04-06T09:10:44;11.45;;;9.75;;
49998;SDS011;68071;45.062;7.356;2023-04-06T09:13:52;10.68;;;9.25;;
49998;SDS011;68071;45.062;7.356;2023-04-06T09:16:58;24.60;;;10.63;;
49998;SDS011;68071;45.062;7.356;2023-04-06T09:20:02;10.68;;;9.05;;
49998;SDS011;68071;45.062;7.356;2023-04-06T09:23:06;14.73;;;9.03;;
49998;SDS011;68071;45.062;7.356;2023-04-06T09:26:21;10.20;;;9.10;;
49998;SDS011;68071;45.062;7.356;2023-04-06T09:29:26;12.65;;;9.57;;
49998;SDS011;68071;45.062;7.356;2023-04-06T09:32:30;10.68;;;9.57;;
49998;SDS011;68071;45.062;7.356;2023-04-06T09:35:34;10.52;;;9.27;;
49998;SDS011;68071;45.062;7.356;2023-04-06T09:38:50;10.95;;;9.85;;
49998;SDS011;68071;45.062;7.356;2023-04-06T09:41:56;11.13;;;9.43;;
49998;SDS011;68071;45.062;7.356;2023-04-06T09:45:04;11.55;;;10.35;;
49998;SDS011;68071;45.062;7.356;2023-04-06T09:48:08;10.60;;;9.35;;
49998;SDS011;68071;45.062;7.356;2023-04-06T09:51:12;10.98;;;9.80;;
49998;SDS011;68071;45.062;7.356;2023-04-06T09:54:18;13.32;;;10.48;;
49998;SDS011;68071;45.062;7.356;2023-04-06T09:57:25;13.20;;;10.77;;
49998;SDS011;68071;45.062;7.356;2023-04-06T10:00:44;12.27;;;9.88;;
49998;SDS011;68071;45.062;7.356;2023-04-06T10:07:11;11.90;;;9.68;;
49998;SDS011;68071;45.062;7.356;2023-04-06T10:10:16;11.02;;;10.00;;
49998;SDS011;68071;45.062;7.356;2023-04-06T10:13:20;10.93;;;9.82;;
49998;SDS011;68071;45.062;7.356;2023-04-06T10:16:25;10.95;;;9.85;;
49998;SDS011;68071;45.062;7.356;2023-04-06T10:19:33;11.25;;;9.38;;
49998;SDS011;68071;45.062;7.356;2023-04-06T10:22:45;11.05;;;8.90;;
49998;SDS011;68071;45.062;7.356;2023-04-06T10:26:00;11.45;;;9.93;;
49998;SDS011;68071;45.062;7.356;2023-04-06T10:32:09;9.77;;;8.77;;
49998;SDS011;68071;45.062;7.356;2023-04-06T10:35:13;11.70;;;9.75;;
49998;SDS011;68071;45.062;7.356;2023-04-06T10:38:19;9.90;;;8.52;;
49998;SDS011;68071;45.062;7.356;2023-04-06T10:41:43;11.98;;;9.63;;
49998;SDS011;68071;45.062;7.356;2023-04-06T10:44:50;12.18;;;9.60;;
49998;SDS011;68071;45.062;7.356;2023-04-06T10:47:54;14.93;;;9.93;;
49998;SDS011;68071;45.062;7.356;2023-04-06T10:50:59;11.05;;;9.20;;
49998;SDS011;68071;45.062;7.356;2023-04-06T10:54:03;13.25;;;10.00;;
49998;SDS011;68071;45.062;7.356;2023-04-06T10:57:08;11.88;;;9.30;;
49998;SDS011;68071;45.062;7.356;2023-04-06T11:00:13;11.27;;;10.07;;
49998;SDS011;68071;45.062;7.356;2023-04-06T11:03:17;10.52;;;9.52;;
49998;SDS011;68071;45.062;7.356;2023-04-06T11:06:22;10.95;;;9.60;;
49998;SDS011;68071;45.062;7.356;2023-04-06T11:09:33;12.48;;;10.15;;
49998;SDS011;68071;45.062;7.356;2023-04-06T11:12:41;13.15;;;9.75;;
49998;SDS011;68071;45.062;7.356;2023-04-06T11:15:46;11.98;;;9.85;;
49998;SDS011;68071;45.062;7.356;2023-04-06T11:22:06;10.95;;;9.85;;
49998;SDS011;68071;45.062;7.356;2023-04-06T11:25:11;12.63;;;10.57;;
49998;SDS011;68071;45.062;7.356;2023-04-06T11:28:17;12.90;;;9.85;;
49998;SDS011;68071;45.062;7.356;2023-04-06T11:31:25;12.00;;;9.93;;
49998;SDS011;68071;45.062;7.356;2023-04-06T11:34:32;11.52;;;9.68;;
49998;SDS011;68071;45.062;7.356;2023-04-06T11:37:39;11.30;;;10.00;;
49998;SDS011;68071;45.062;7.356;2023-04-06T11:40:43;12.02;;;10.05;;
49998;SDS011;68071;45.062;7.356;2023-04-06T11:43:47;12.43;;;9.85;;
49998;SDS011;68071;45.062;7.356;2023-04-06T11:46:53;11.90;;;10.27;;
49998;SDS011;68071;45.062;7.356;2023-04-06T11:50:08;14.07;;;10.37;;
49998;SDS011;68071;45.062;7.356;2023-04-06T11:59:32;10.82;;;9.70;;
49998;SDS011;68071;45.062;7.356;2023-04-06T12:02:37;14.32;;;10.18;;
49998;SDS011;68071;45.062;7.356;2023-04-06T12:05:43;12.23;;;10.30;;
49998;SDS011;68071;45.062;7.356;2023-04-06T12:11:51;12.30;;;10.10;;
49998;SDS011;68071;45.062;7.356;2023-04-06T12:14:55;11.93;;;10.00;;
49998;SDS011;68071;45.062;7.356;2023-04-06T12:17:59;11.63;;;9.80;;
49998;SDS011;68071;45.062;7.356;2023-04-06T12:21:03;12.52;;;10.93;;
49998;SDS011;68071;45.062;7.356;2023-04-06T12:24:09;13.50;;;10.45;;
49998;SDS011;68071;45.062;7.356;2023-04-06T12:27:12;13.95;;;10.10;;
49998;SDS011;68071;45.062;7.356;2023-04-06T12:30:16;11.73;;;10.25;;
49998;SDS011;68071;45.062;7.356;2023-04-06T12:33:20;12.43;;;10.95;;
49998;SDS011;68071;45.062;7.356;2023-04-06T12:36:25;11.95;;;10.43;;
49998;SDS011;68071;45.062;7.356;2023-04-06T12:39:29;16.45;;;11.52;;
49998;SDS011;68071;45.062;7.356;2023-04-06T12:42:33;12.82;;;11.30;;
49998;SDS011;68071;45.062;7.356;2023-04-06T12:45:38;14.38;;;12.20;;
49998;SDS011;68071;45.062;7.356;2023-04-06T12:48:44;12.25;;;10.93;;
49998;SDS011;68071;45.062;7.356;2023-04-06T12:51:48;13.82;;;11.85;;
49998;SDS011;68071;45.062;7.356;2023-04-06T12:54:51;13.70;;;11.80;;
49998;SDS011;68071;45.062;7.356;2023-04-06T12:57:56;14.32;;;11.27;;
49998;SDS011;68071;45.062;7.356;2023-04-06T13:01:00;12.65;;;11.35;;
49998;SDS011;68071;45.062;7.356;2023-04-06T13:04:06;14.13;;;11.95;;
49998;SDS011;68071;45.062;7.356;2023-04-06T13:07:10;13.02;;;10.95;;
49998;SDS011;68071;45.062;7.356;2023-04-06T13:10:14;14.45;;;11.88;;
49998;SDS011;68071;45.062;7.356;2023-04-06T13:13:28;15.43;;;12.07;;
49998;SDS011;68071;45.062;7.356;2023-04-06T13:16:33;13.30;;;11.27;;
49998;SDS011;68071;45.062;7.356;2023-04-06T13:19:37;14.30;;;11.30;;
49998;SDS011;68071;45.062;7.356;2023-04-06T13:22:41;13.32;;;11.07;;
49998;SDS011;68071;45.062;7.356;2023-04-06T13:25:45;13.23;;;11.68;;
49998;SDS011;68071;45.062;7.356;2023-04-06T13:28:50;13.98;;;12.52;;
49998;SDS011;68071;45.062;7.356;2023-04-06T13:31:54;13.60;;;12.18;;
49998;SDS011;68071;45.062;7.356;2023-04-06T13:34:58;13.50;;;11.27;;
49998;SDS011;68071;45.062;7.356;2023-04-06T13:38:03;14.38;;;11.73;;
49998;SDS011;68071;45.062;7.356;2023-04-06T13:41:08;12.52;;;11.15;;
49998;SDS011;68071;45.062;7.356;2023-04-06T13:44:12;15.18;;;11.55;;
49998;SDS011;68071;45.062;7.356;2023-04-06T13:47:16;14.10;;;10.95;;
49998;SDS011;68071;45.062;7.356;2023-04-06T13:50:20;15.82;;;12.05;;
49998;SDS011;68071;45.062;7.356;2023-04-06T13:53:25;13.00;;;11.00;;
49998;SDS011;68071;45.062;7.356;2023-04-06T13:56:29;13.88;;;11.15;;
49998;SDS011;68071;45.062;7.356;2023-04-06T13:59:33;14.10;;;11.45;;
49998;SDS011;68071;45.062;7.356;2023-04-06T14:02:39;14.50;;;12.48;;
49998;SDS011;68071;45.062;7.356;2023-04-06T14:05:44;14.30;;;12.07;;
49998;SDS011;68071;45.062;7.356;2023-04-06T14:08:48;14.57;;;12.07;;
49998;SDS011;68071;45.062;7.356;2023-04-06T14:11:52;13.98;;;11.30;;
49998;SDS011;68071;45.062;7.356;2023-04-06T14:14:56;13.82;;;11.98;;
49998;SDS011;68071;45.062;7.356;2023-04-06T14:18:00;14.43;;;12.48;;
49998;SDS011;68071;45.062;7.356;2023-04-06T14:21:05;18.25;;;12.63;;
49998;SDS011;68071;45.062;7.356;2023-04-06T14:24:09;14.80;;;11.77;;
49998;SDS011;68071;45.062;7.356;2023-04-06T14:27:13;16.02;;;12.35;;
49998;SDS011;68071;45.062;7.356;2023-04-06T14:30:17;15.95;;;12.52;;
49998;SDS011;68071;45.062;7.356;2023-04-06T14:33:22;15.30;;;12.40;;
49998;SDS011;68071;45.062;7.356;2023-04-06T14:36:26;14.88;;;12.55;;
49998;SDS011;68071;45.062;7.356;2023-04-06T14:39:31;16.23;;;13.20;;
49998;SDS011;68071;45.062;7.356;2023-04-06T14:42:36;16.20;;;12.98;;
49998;SDS011;68071;45.062;7.356;2023-04-06T14:45:40;17.15;;;13.18;;
49998;SDS011;68071;45.062;7.356;2023-04-06T14:48:44;17.30;;;13.23;;
49998;SDS011;68071;45.062;7.356;2023-04-06T14:51:49;14.52;;;12.93;;
49998;SDS011;68071;45.062;7.356;2023-04-06T14:57:58;15.52;;;13.82;;
49998;SDS011;68071;45.062;7.356;2023-04-06T15:01:04;17.75;;;14.25;;
49998;SDS011;68071;45.062;7.356;2023-04-06T15:04:09;14.05;;;12.13;;
49998;SDS011;68071;45.062;7.356;2023-04-06T15:07:13;17.27;;;12.82;;
49998;SDS011;68071;45.062;7.356;2023-04-06T15:10:17;16.60;;;12.15;;
49998;SDS011;68071;45.062;7.356;2023-04-06T15:13:21;16.33;;;12.57;;
49998;SDS011;68071;45.062;7.356;2023-04-06T15:16:25;15.63;;;12.48;;
49998;SDS011;68071;45.062;7.356;2023-04-06T15:19:29;15.45;;;12.75;;
49998;SDS011;68071;45.062;7.356;2023-04-06T15:22:33;16.60;;;13.57;;
49998;SDS011;68071;45.062;7.356;2023-04-06T15:25:38;19.00;;;12.90;;
49998;SDS011;68071;45.062;7.356;2023-04-06T15:28:44;14.95;;;11.85;;
49998;SDS011;68071;45.062;7.356;2023-04-06T15:31:49;15.30;;;12.82;;
49998;SDS011;68071;45.062;7.356;2023-04-06T15:34:53;14.77;;;12.77;;
49998;SDS011;68071;45.062;7.356;2023-04-06T15:37:58;15.98;;;12.82;;
49998;SDS011;68071;45.062;7.356;2023-04-06T15:41:03;15.85;;;13.05;;
49998;SDS011;68071;45.062;7.356;2023-04-06T15:44:08;15.60;;;12.57;;
49998;SDS011;68071;45.062;7.356;2023-04-06T15:47:12;17.25;;;13.15;;
49998;SDS011;68071;45.062;7.356;2023-04-06T15:50:16;14.75;;;13.23;;
49998;SDS011;68071;45.062;7.356;2023-04-06T15:53:21;15.75;;;12.98;;
49998;SDS011;68071;45.062;7.356;2023-04-06T15:56:25;16.80;;;12.73;;
49998;SDS011;68071;45.062;7.356;2023-04-06T15:59:28;13.68;;;11.82;;
49998;SDS011;68071;45.062;7.356;2023-04-06T16:02:32;15.32;;;12.48;;
49998;SDS011;68071;45.062;7.356;2023-04-06T16:05:36;16.13;;;12.40;;
49998;SDS011;68071;45.062;7.356;2023-04-06T16:08:40;16.23;;;12.60;;
49998;SDS011;68071;45.062;7.356;2023-04-06T16:11:44;17.20;;;13.20;;
49998;SDS011;68071;45.062;7.356;2023-04-06T16:14:49;15.95;;;13.40;;
49998;SDS011;68071;45.062;7.356;2023-04-06T16:17:53;16.85;;;12.73;;
49998;SDS011;68071;45.062;7.356;2023-04-06T16:20:58;16.10;;;12.98;;
49998;SDS011;68071;45.062;7.356;2023-04-06T16:24:02;14.55;;;12.38;;
49998;SDS011;68071;45.062;7.356;2023-04-06T16:27:09;14.35;;;12.02;;
49998;SDS011;68071;45.062;7.356;2023-04-06T16:30:14;16.23;;;12.40;;
49998;SDS011;68071;45.062;7.356;2023-04-06T16:33:18;16.88;;;12.23;;
49998;SDS011;68071;45.062;7.356;2023-04-06T16:36:23;14.03;;;12.17;;
49998;SDS011;68071;45.062;7.356;2023-04-06T16:39:30;15.25;;;12.63;;
49998;SDS011;68071;45.062;7.356;2023-04-06T16:42:34;14.52;;;12.25;;
49998;SDS011;68071;45.062;7.356;2023-04-06T16:45:39;15.73;;;13.00;;
49998;SDS011;68071;45.062;7.356;2023-04-06T16:48:43;17.13;;;13.25;;
49998;SDS011;68071;45.062;7.356;2023-04-06T16:51:47;19.25;;;14.32;;
49998;SDS011;68071;45.062;7.356;2023-04-06T16:54:52;17.00;;;13.05;;
49998;SDS011;68071;45.062;7.356;2023-04-06T16:57:56;15.13;;;12.52;;
49998;SDS011;68071;45.062;7.356;2023-04-06T17:01:00;16.10;;;12.98;;
49998;SDS011;68071;45.062;7.356;2023-04-06T17:04:04;19.23;;;15.43;;
49998;SDS011;68071;45.062;7.356;2023-04-06T17:07:08;18.08;;;14.85;;
49998;SDS011;68071;45.062;7.356;2023-04-06T17:10:13;15.88;;;13.82;;
49998;SDS011;68071;45.062;7.356;2023-04-06T17:13:18;15.43;;;13.02;;
49998;SDS011;68071;45.062;7.356;2023-04-06T17:16:22;17.48;;;14.10;;
49998;SDS011;68071;45.062;7.356;2023-04-06T17:19:25;18.92;;;14.93;;
49998;SDS011;68071;45.062;7.356;2023-04-06T17:22:30;20.15;;;15.60;;
49998;SDS011;68071;45.062;7.356;2023-04-06T17:25:34;18.58;;;16.25;;
49998;SDS011;68071;45.062;7.356;2023-04-06T17:28:38;16.90;;;15.03;;
49998;SDS011;68071;45.062;7.356;2023-04-06T17:31:43;17.98;;;15.25;;
49998;SDS011;68071;45.062;7.356;2023-04-06T17:34:48;17.70;;;14.90;;
49998;SDS011;68071;45.062;7.356;2023-04-06T17:37:52;17.45;;;14.10;;
49998;SDS011;68071;45.062;7.356;2023-04-06T17:40:57;19.50;;;16.58;;
49998;SDS011;68071;45.062;7.356;2023-04-06T17:44:00;19.33;;;16.65;;
49998;SDS011;68071;45.062;7.356;2023-04-06T17:47:04;17.33;;;14.90;;
49998;SDS011;68071;45.062;7.356;2023-04-06T17:50:08;20.50;;;15.95;;
49998;SDS011;68071;45.062;7.356;2023-04-06T17:53:13;18.35;;;16.45;;
49998;SDS011;68071;45.062;7.356;2023-04-06T17:56:18;18.20;;;16.20;;
49998;SDS011;68071;45.062;7.356;2023-04-06T17:59:22;18.80;;;16.75;;
49998;SDS011;68071;45.062;7.356;2023-04-06T18:02:26;18.30;;;16.25;;
49998;SDS011;68071;45.062;7.356;2023-04-06T18:05:30;17.83;;;14.95;;
49998;SDS011;68071;45.062;7.356;2023-04-06T18:08:34;17.58;;;15.52;;
49998;SDS011;68071;45.062;7.356;2023-04-06T18:11:39;19.25;;;15.27;;
49998;SDS011;68071;45.062;7.356;2023-04-06T18:14:42;16.67;;;14.55;;
49998;SDS011;68071;45.062;7.356;2023-04-06T18:17:48;18.65;;;15.60;;
49998;SDS011;68071;45.062;7.356;2023-04-06T18:20:52;19.65;;;16.90;;
49998;SDS011;68071;45.062;7.356;2023-04-06T18:23:57;18.85;;;16.08;;
49998;SDS011;68071;45.062;7.356;2023-04-06T18:27:01;20.35;;;16.60;;
49998;SDS011;68071;45.062;7.356;2023-04-06T18:30:05;20.58;;;17.10;;
49998;SDS011;68071;45.062;7.356;2023-04-06T18:33:10;18.85;;;16.23;;